createdAt,value
2022-09-11T00:01:35.702Z,16.83
2022-09-11T00:04:02.595Z,17.01
2022-09-11T00:06:30.357Z,16.48
2022-09-11T00:09:01.460Z,15.48
2022-09-11T00:11:33.608Z,16.99
2022-09-11T00:13:59.915Z,17.09
2022-09-11T00:16:33.958Z,17.07
2022-09-11T00:19:02.618Z,17.02
2022-09-11T00:21:28.859Z,17.11
2022-09-11T00:23:55.599Z,17.13
2022-09-11T00:26:21.652Z,16.96
2022-09-11T00:28:49.916Z,17.05
2022-09-11T00:31:24.243Z,17.05
2022-09-11T00:33:50.974Z,16.87
2022-09-11T00:36:20.402Z,17.10
2022-09-11T00:38:47.064Z,17.15
2022-09-11T00:41:35.458Z,17.11
2022-09-11T00:44:11.921Z,17.03
2022-09-11T00:46:47.619Z,16.87
2022-09-11T00:49:26.227Z,16.86
2022-09-11T00:51:54.460Z,16.97
2022-09-11T00:54:25.948Z,14.96
2022-09-11T00:56:52.548Z,16.54
2022-09-11T00:59:24.449Z,16.28
2022-09-11T01:01:50.699Z,16.79
2022-09-11T01:04:16.651Z,16.62
2022-09-11T01:06:42.944Z,16.86
2022-09-11T01:09:08.759Z,16.90
2022-09-11T01:12:01.930Z,16.88
2022-09-11T01:14:47.387Z,16.86
2022-09-11T01:17:17.422Z,17.02
2022-09-11T01:19:58.441Z,16.76
2022-09-11T01:22:45.439Z,16.96
2022-09-11T01:25:31.460Z,16.81
2022-09-11T01:28:00.170Z,16.28
2022-09-11T01:30:31.641Z,16.95
2022-09-11T01:33:16.500Z,16.92
2022-09-11T01:36:05.321Z,16.95
2022-09-11T01:38:41.594Z,16.99
2022-09-11T01:41:11.511Z,15.96
2022-09-11T01:43:42.573Z,16.81
2022-09-11T01:46:09.418Z,16.81
2022-09-11T01:48:40.496Z,15.59
2022-09-11T01:51:09.028Z,16.93
2022-09-11T01:53:37.378Z,17.09
2022-09-11T01:56:07.380Z,17.02
2022-09-11T01:58:35.691Z,16.88
2022-09-11T02:01:09.391Z,15.45
2022-09-11T02:03:46.108Z,17.03
2022-09-11T02:06:15.466Z,16.75
2022-09-11T02:08:46.350Z,17.03
2022-09-11T02:11:15.310Z,17.03
2022-09-11T02:13:56.155Z,17.04
2022-09-11T02:16:30.807Z,17.01
2022-09-11T02:19:01.225Z,16.87
2022-09-11T02:21:27.157Z,16.83
2022-09-11T02:23:54.723Z,16.93
2022-09-11T02:26:23.600Z,16.63
2022-09-11T02:28:49.663Z,17.04
2022-09-11T02:31:16.641Z,16.95
2022-09-11T02:33:42.836Z,16.91
2022-09-11T02:36:27.618Z,16.87
2022-09-11T02:39:31.035Z,16.58
2022-09-11T02:42:10.205Z,16.65
2022-09-11T02:45:08.475Z,16.72
2022-09-11T02:47:39.951Z,16.82
2022-09-11T02:50:25.336Z,16.83
2022-09-11T02:53:07.720Z,16.72
2022-09-11T02:55:55.955Z,16.59
2022-09-11T02:58:33.768Z,16.46
2022-09-11T03:01:00.508Z,16.52
2022-09-11T03:03:26.372Z,16.65
2022-09-11T03:05:52.443Z,16.80
2022-09-11T03:08:18.508Z,16.76
2022-09-11T03:11:04.443Z,16.64
2022-09-11T03:13:30.483Z,16.53
2022-09-11T03:15:56.330Z,16.52
2022-09-11T03:18:22.497Z,16.65
2022-09-11T03:20:49.119Z,16.62
2022-09-11T03:23:15.128Z,16.50
2022-09-11T03:25:40.915Z,16.59
2022-09-11T03:28:07.034Z,15.59
2022-09-11T03:30:32.939Z,16.56
2022-09-11T03:33:00.048Z,16.81
2022-09-11T03:35:26.622Z,16.86
2022-09-11T03:37:54.657Z,15.76
2022-09-11T03:40:21.027Z,16.83
2022-09-11T03:42:47.453Z,16.69
2022-09-11T03:45:14.175Z,16.02
2022-09-11T03:47:40.741Z,16.73
2022-09-11T03:50:08.553Z,16.36
2022-09-11T03:52:35.418Z,16.67
2022-09-11T03:55:02.602Z,15.57
2022-09-11T03:57:28.370Z,16.81
2022-09-11T03:59:56.298Z,16.84
2022-09-11T04:02:23.106Z,16.77
2022-09-11T04:04:48.921Z,16.85
2022-09-11T04:07:14.735Z,16.86
2022-09-11T04:09:40.557Z,16.82
2022-09-11T04:12:06.478Z,16.98
2022-09-11T04:14:32.265Z,16.85
2022-09-11T04:16:58.793Z,16.85
2022-09-11T04:19:24.772Z,16.98
2022-09-11T04:21:50.810Z,16.49
2022-09-11T04:24:16.608Z,16.90
2022-09-11T04:26:42.453Z,16.95
2022-09-11T04:29:08.314Z,16.76
2022-09-11T04:31:35.355Z,15.48
2022-09-11T04:34:01.299Z,16.80
2022-09-11T04:36:29.193Z,17.01
2022-09-11T04:38:57.100Z,16.55
2022-09-11T04:41:23.588Z,15.68
2022-09-11T04:43:53.446Z,16.67
2022-09-11T04:46:19.239Z,16.94
2022-09-11T04:48:52.866Z,16.90
2022-09-11T04:51:25.971Z,16.97
2022-09-11T04:53:54.294Z,16.92
2022-09-11T04:56:20.532Z,16.88
2022-09-11T04:58:53.141Z,16.50
2022-09-11T05:01:18.993Z,16.62
2022-09-11T05:03:44.794Z,16.90
2022-09-11T05:06:11.808Z,16.73
2022-09-11T05:08:37.686Z,17.19
2022-09-11T05:11:06.858Z,17.22
2022-09-11T05:13:36.338Z,17.20
2022-09-11T05:16:10.459Z,17.09
2022-09-11T05:18:37.074Z,17.30
2022-09-11T05:21:06.073Z,17.18
2022-09-11T05:23:33.073Z,16.97
2022-09-11T05:26:00.632Z,17.02
2022-09-11T05:28:27.036Z,16.98
2022-09-11T05:30:53.889Z,16.61
2022-09-11T05:33:22.899Z,16.94
2022-09-11T05:35:52.763Z,17.09
2022-09-11T05:38:19.615Z,17.26
2022-09-11T05:40:47.815Z,17.11
2022-09-11T05:43:14.838Z,16.69
2022-09-11T05:45:42.282Z,15.99
2022-09-11T05:48:09.291Z,16.84
2022-09-11T05:50:35.978Z,17.09
2022-09-11T05:53:01.985Z,17.00
2022-09-11T05:55:27.799Z,16.94
2022-09-11T05:57:54.082Z,16.72
2022-09-11T06:00:20.691Z,15.78
2022-09-11T06:02:48.195Z,16.91
2022-09-11T06:05:14.929Z,17.01
2022-09-11T06:07:41.449Z,17.26
2022-09-11T06:10:08.208Z,17.20
2022-09-11T06:12:34.766Z,17.10
2022-09-11T06:15:00.554Z,17.13
2022-09-11T06:17:27.619Z,17.09
2022-09-11T06:19:54.366Z,17.19
2022-09-11T06:22:20.977Z,16.99
2022-09-11T06:24:48.381Z,16.48
2022-09-11T06:27:14.649Z,17.01
2022-09-11T06:29:43.355Z,16.71
2022-09-11T06:32:09.145Z,16.81
2022-09-11T06:34:34.985Z,17.21
2022-09-11T06:37:01.517Z,16.97
2022-09-11T06:39:27.325Z,17.18
2022-09-11T06:41:53.271Z,17.25
2022-09-11T06:44:19.436Z,17.27
2022-09-11T06:46:45.872Z,17.34
2022-09-11T06:49:11.744Z,17.42
2022-09-11T06:51:39.186Z,17.17
2022-09-11T06:54:05.645Z,16.99
2022-09-11T06:56:31.772Z,16.83
2022-09-11T06:58:58.148Z,16.81
2022-09-11T07:01:24.337Z,17.29
2022-09-11T07:03:52.474Z,17.28
2022-09-11T07:06:23.539Z,17.22
2022-09-11T07:08:51.710Z,16.94
2022-09-11T07:11:17.924Z,15.15
2022-09-11T07:13:44.062Z,17.51
2022-09-11T07:16:12.453Z,17.51
2022-09-11T07:18:44.233Z,16.90
2022-09-11T07:21:15.686Z,17.52
2022-09-11T07:23:42.754Z,17.82
2022-09-11T07:26:11.053Z,17.88
2022-09-11T07:28:37.606Z,16.79
2022-09-11T07:31:15.336Z,17.85
2022-09-11T07:33:45.878Z,17.32
2022-09-11T07:36:13.433Z,17.25
2022-09-11T07:38:40.621Z,17.67
2022-09-11T07:41:09.988Z,17.48
2022-09-11T07:43:36.514Z,17.66
2022-09-11T07:46:03.300Z,17.72
2022-09-11T07:48:29.766Z,17.93
2022-09-11T07:51:03.623Z,17.55
2022-09-11T07:53:33.909Z,17.84
2022-09-11T07:56:08.256Z,17.93
2022-09-11T07:58:35.800Z,16.54
2022-09-11T08:01:04.271Z,17.71
2022-09-11T08:03:31.078Z,16.83
2022-09-11T08:05:58.417Z,17.53
2022-09-11T08:08:25.264Z,17.33
2022-09-11T08:10:51.462Z,17.39
2022-09-11T08:13:17.597Z,17.84
2022-09-11T08:15:47.408Z,17.74
2022-09-11T08:18:13.649Z,17.63
2022-09-11T08:20:39.791Z,17.82
2022-09-11T08:23:05.560Z,17.94
2022-09-11T08:25:31.346Z,17.62
2022-09-11T08:27:57.142Z,17.89
2022-09-11T08:30:22.987Z,18.16
2022-09-11T08:32:48.759Z,18.05
2022-09-11T08:35:14.832Z,18.13
2022-09-11T08:37:40.676Z,18.06
2022-09-11T08:40:09.671Z,17.33
2022-09-11T08:42:35.998Z,17.95
2022-09-11T08:45:02.432Z,17.54
2022-09-11T08:47:32.012Z,17.74
2022-09-11T08:50:02.219Z,16.19
2022-09-11T08:52:28.273Z,17.77
2022-09-11T08:54:56.309Z,18.07
2022-09-11T08:57:32.716Z,17.66
2022-09-11T09:00:17.266Z,18.22
2022-09-11T09:03:02.263Z,18.12
2022-09-11T09:06:08.886Z,17.96
2022-09-11T09:08:56.340Z,18.30
2022-09-11T09:11:35.666Z,17.67
2022-09-11T09:14:05.965Z,17.54
2022-09-11T09:16:49.999Z,17.86
2022-09-11T09:19:30.487Z,17.83
2022-09-11T09:22:13.492Z,17.98
2022-09-11T09:24:44.347Z,18.07
2022-09-11T09:27:15.499Z,17.85
2022-09-11T09:29:46.444Z,17.82
2022-09-11T09:32:21.378Z,17.56
2022-09-11T09:34:48.739Z,17.84
2022-09-11T09:37:18.544Z,18.08
2022-09-11T09:39:45.031Z,18.02
2022-09-11T09:42:19.986Z,17.83
2022-09-11T09:44:51.135Z,17.25
2022-09-11T09:47:17.128Z,17.81
2022-09-11T09:49:43.814Z,18.16
2022-09-11T09:52:24.019Z,17.55
2022-09-11T09:54:59.625Z,17.96
2022-09-11T09:57:31.874Z,18.00
2022-09-11T10:00:10.574Z,17.93
2022-09-11T10:02:48.537Z,18.35
2022-09-11T10:05:18.951Z,18.23
2022-09-11T10:07:50.615Z,18.26
2022-09-11T10:10:22.277Z,18.31
2022-09-11T10:12:48.238Z,18.50
2022-09-11T10:15:21.855Z,18.27
2022-09-11T10:17:49.252Z,17.94
2022-09-11T10:20:14.999Z,17.91
2022-09-11T10:22:40.999Z,17.67
2022-09-11T10:25:20.506Z,18.14
2022-09-11T10:27:58.657Z,18.16
2022-09-11T10:30:47.432Z,18.59
2022-09-11T10:33:18.003Z,18.16
2022-09-11T10:35:55.189Z,18.02
2022-09-11T10:38:41.167Z,17.88
2022-09-11T10:41:13.216Z,17.89
2022-09-11T10:43:59.675Z,18.16
2022-09-11T10:46:28.236Z,18.30
2022-09-11T10:49:02.941Z,18.48
2022-09-11T10:51:30.985Z,18.53
2022-09-11T10:54:30.809Z,18.53
2022-09-11T10:56:59.619Z,18.40
2022-09-11T11:00:05.351Z,18.38
2022-09-11T11:02:33.481Z,18.80
2022-09-11T11:05:04.846Z,18.14
2022-09-11T11:08:03.033Z,17.80
2022-09-11T11:11:01.584Z,18.80
2022-09-11T11:13:57.195Z,19.40
2022-09-11T11:16:47.524Z,19.31
2022-09-11T11:19:50.733Z,19.20
2022-09-11T11:22:35.657Z,18.99
2022-09-11T11:25:26.665Z,18.80
2022-09-11T11:27:59.686Z,18.43
2022-09-11T11:30:37.458Z,18.69
2022-09-11T11:33:10.872Z,18.82
2022-09-11T11:35:44.075Z,19.05
2022-09-11T11:38:18.716Z,18.96
2022-09-11T11:40:48.919Z,19.07
2022-09-11T11:43:16.800Z,18.68
2022-09-11T11:45:45.478Z,19.43
2022-09-11T11:48:43.510Z,19.17
2022-09-11T11:51:15.244Z,19.19
2022-09-11T11:53:59.085Z,18.67
2022-09-11T11:56:40.126Z,19.01
2022-09-11T11:59:22.487Z,19.22
2022-09-11T12:01:59.107Z,18.65
2022-09-11T12:04:43.331Z,18.64
2022-09-11T12:07:34.270Z,18.47
2022-09-11T12:10:01.863Z,18.69
2022-09-11T12:12:31.636Z,17.95
2022-09-11T12:15:07.288Z,18.84
2022-09-11T12:17:36.283Z,18.26
2022-09-11T12:20:11.105Z,18.97
2022-09-11T12:22:39.461Z,18.56
2022-09-11T12:25:27.997Z,18.86
2022-09-11T12:28:22.634Z,19.34
2022-09-11T12:31:12.580Z,19.22
2022-09-11T12:33:42.664Z,19.18
2022-09-11T12:36:16.256Z,19.17
2022-09-11T12:38:47.993Z,19.30
2022-09-11T12:41:24.423Z,19.09
2022-09-11T12:43:50.289Z,19.62
2022-09-11T12:46:22.412Z,19.44
2022-09-11T12:49:11.250Z,19.79
2022-09-11T12:51:42.305Z,20.26
2022-09-11T12:54:21.132Z,20.39
2022-09-11T12:56:49.726Z,20.39
2022-09-11T12:59:45.499Z,21.04
2022-09-11T13:02:24.658Z,21.12
2022-09-11T13:04:51.497Z,21.03
2022-09-11T13:07:30.999Z,22.19
2022-09-11T13:10:00.403Z,22.04
2022-09-11T13:12:26.247Z,22.11
2022-09-11T13:15:01.078Z,21.20
2022-09-11T13:17:32.221Z,21.16
2022-09-11T13:20:04.144Z,20.76
2022-09-11T13:22:33.624Z,20.09
2022-09-11T13:25:19.387Z,20.29
2022-09-11T13:27:50.377Z,19.91
2022-09-11T13:30:22.109Z,19.42
2022-09-11T13:32:50.469Z,19.86
2022-09-11T13:35:21.949Z,18.55
2022-09-11T13:38:01.874Z,19.71
2022-09-11T13:41:08.172Z,19.74
2022-09-11T13:43:38.812Z,20.00
2022-09-11T13:46:13.691Z,19.85
2022-09-11T13:48:39.919Z,19.70
2022-09-11T13:51:05.969Z,19.88
2022-09-11T13:53:32.796Z,20.09
2022-09-11T13:55:58.587Z,20.47
2022-09-11T13:58:37.265Z,20.63
2022-09-11T14:01:14.105Z,19.51
2022-09-11T14:03:45.486Z,21.04
2022-09-11T14:06:18.196Z,20.93
2022-09-11T14:08:55.503Z,21.51
2022-09-11T14:11:28.984Z,20.98
2022-09-11T14:14:05.362Z,21.22
2022-09-11T14:16:33.459Z,21.17
2022-09-11T14:19:03.073Z,20.73
2022-09-11T14:21:34.736Z,19.90
2022-09-11T14:24:01.038Z,18.65
2022-09-11T14:26:29.824Z,20.21
2022-09-11T14:29:12.136Z,20.26
2022-09-11T14:31:40.610Z,20.60
2022-09-11T14:34:09.299Z,20.29
2022-09-11T14:36:38.065Z,20.90
2022-09-11T14:39:04.730Z,21.15
2022-09-11T14:41:31.009Z,21.74
2022-09-11T14:43:58.155Z,21.63
2022-09-11T14:46:24.098Z,21.65
2022-09-11T14:48:50.890Z,21.43
2022-09-11T14:51:16.680Z,21.35
2022-09-11T14:53:42.496Z,21.80
2022-09-11T14:56:08.601Z,21.44
2022-09-11T14:58:34.398Z,21.15
2022-09-11T15:01:01.540Z,21.30
2022-09-11T15:03:29.582Z,21.42
2022-09-11T15:05:56.862Z,21.63
2022-09-11T15:08:23.691Z,21.02
2022-09-11T15:10:50.230Z,21.28
2022-09-11T15:13:16.095Z,21.73
2022-09-11T15:15:42.003Z,22.00
2022-09-11T15:18:08.583Z,22.27
2022-09-11T15:20:35.269Z,21.15
2022-09-11T15:23:01.110Z,20.93
2022-09-11T15:25:27.073Z,21.62
2022-09-11T15:27:53.112Z,20.95
2022-09-11T15:30:20.264Z,20.54
2022-09-11T15:32:47.364Z,20.70
2022-09-11T15:35:13.866Z,21.19
2022-09-11T15:37:39.804Z,21.45
2022-09-11T15:40:06.256Z,21.27
2022-09-11T15:42:38.884Z,20.24
2022-09-11T15:45:06.776Z,20.58
2022-09-11T15:47:32.568Z,20.60
2022-09-11T15:49:58.433Z,20.86
2022-09-11T15:52:26.507Z,20.43
2022-09-11T15:54:52.590Z,20.43
2022-09-11T15:57:18.524Z,20.10
2022-09-11T15:59:44.343Z,19.47
2022-09-11T16:02:11.300Z,20.48
2022-09-11T16:04:37.132Z,19.39
2022-09-11T16:07:03.669Z,20.30
2022-09-11T16:09:30.934Z,20.35
2022-09-11T16:11:57.666Z,19.36
2022-09-11T16:14:34.740Z,19.42
2022-09-11T16:17:02.268Z,19.90
2022-09-11T16:19:28.767Z,19.77
2022-09-11T16:21:56.352Z,19.86
2022-09-11T16:24:24.737Z,19.88
2022-09-11T16:26:53.642Z,20.14
2022-09-11T16:29:20.423Z,19.17
2022-09-11T16:31:46.246Z,19.70
2022-09-11T16:34:12.439Z,19.58
2022-09-11T16:36:38.333Z,19.73
2022-09-11T16:39:09.440Z,19.83
2022-09-11T16:41:38.701Z,19.77
2022-09-11T16:44:06.157Z,19.96
2022-09-11T16:46:32.705Z,19.86
2022-09-11T16:49:01.786Z,19.62
2022-09-11T16:51:28.862Z,19.51
2022-09-11T16:53:54.825Z,19.69
2022-09-11T16:56:22.409Z,19.77
2022-09-11T16:58:48.576Z,19.61
2022-09-11T17:01:22.875Z,19.93
2022-09-11T17:03:51.024Z,19.37
2022-09-11T17:06:21.291Z,19.38
2022-09-11T17:08:50.487Z,19.66
2022-09-11T17:11:17.968Z,19.68
2022-09-11T17:13:44.015Z,19.54
2022-09-11T17:16:16.140Z,19.05
2022-09-11T17:18:46.836Z,19.61
2022-09-11T17:21:12.910Z,19.73
2022-09-11T17:23:39.009Z,19.16
2022-09-11T17:26:07.256Z,18.53
2022-09-11T17:28:35.321Z,18.24
2022-09-11T17:31:03.202Z,18.34
2022-09-11T17:33:31.450Z,18.27
2022-09-11T17:35:58.921Z,18.42
2022-09-11T17:38:25.269Z,17.19
2022-09-11T17:40:57.027Z,18.46
2022-09-11T17:43:23.696Z,18.24
2022-09-11T17:45:51.581Z,18.76
2022-09-11T17:48:20.607Z,18.21
2022-09-11T17:50:48.019Z,18.60
2022-09-11T17:53:14.026Z,18.64
2022-09-11T17:55:40.577Z,18.55
2022-09-11T17:58:06.398Z,18.51
2022-09-11T18:00:32.194Z,18.70
2022-09-11T18:02:58.147Z,17.96
2022-09-11T18:05:24.711Z,17.98
2022-09-11T18:07:50.596Z,16.91
2022-09-11T18:10:19.051Z,17.74
2022-09-11T18:12:45.771Z,18.02
2022-09-11T18:15:11.831Z,16.70
2022-09-11T18:17:38.419Z,17.81
2022-09-11T18:20:04.996Z,17.43
2022-09-11T18:22:31.096Z,16.76
2022-09-11T18:24:59.821Z,17.59
2022-09-11T18:27:25.803Z,17.48
2022-09-11T18:29:51.661Z,17.12
2022-09-11T18:32:17.450Z,17.06
2022-09-11T18:34:43.501Z,16.62
2022-09-11T18:37:10.674Z,17.06
2022-09-11T18:39:37.524Z,16.80
2022-09-11T18:42:05.512Z,17.29
2022-09-11T18:44:31.302Z,14.59
2022-09-11T18:46:57.169Z,17.93
2022-09-11T18:49:23.035Z,17.52
2022-09-11T18:51:48.992Z,17.17
2022-09-11T18:54:17.547Z,17.60
2022-09-11T18:56:43.864Z,17.15
2022-09-11T18:59:10.911Z,15.46
2022-09-11T19:01:38.203Z,17.10
2022-09-11T19:04:09.443Z,17.35
2022-09-11T19:06:37.865Z,17.44
2022-09-11T19:09:05.798Z,17.17
2022-09-11T19:11:32.128Z,17.84
2022-09-11T19:14:03.667Z,17.80
2022-09-11T19:16:29.590Z,17.83
2022-09-11T19:18:55.476Z,17.57
2022-09-11T19:21:22.698Z,17.75
2022-09-11T19:24:00.382Z,16.99
2022-09-11T19:26:44.849Z,15.84
2022-09-11T19:29:12.610Z,16.86
2022-09-11T19:31:39.753Z,16.28
2022-09-11T19:34:07.376Z,15.97
2022-09-11T19:36:35.149Z,15.82
2022-09-11T19:39:01.371Z,15.82
2022-09-11T19:41:30.047Z,15.91
2022-09-11T19:44:03.547Z,16.62
2022-09-11T19:46:31.403Z,16.79
2022-09-11T19:49:00.563Z,16.56
2022-09-11T19:51:28.923Z,17.13
2022-09-11T19:53:56.018Z,17.41
2022-09-11T19:56:22.854Z,17.55
2022-09-11T19:58:49.000Z,17.50
2022-09-11T20:01:23.165Z,17.55
2022-09-11T20:03:52.196Z,17.56
2022-09-11T20:06:19.130Z,14.02
2022-09-11T20:08:46.473Z,17.34
2022-09-11T20:11:15.297Z,17.48
2022-09-11T20:13:41.288Z,17.14
2022-09-11T20:16:12.132Z,17.51
2022-09-11T20:18:38.164Z,16.30
2022-09-11T20:21:09.768Z,17.34
2022-09-11T20:23:35.811Z,17.19
2022-09-11T20:26:17.421Z,17.17
2022-09-11T20:28:44.500Z,17.21
2022-09-11T20:31:21.879Z,16.96
2022-09-11T20:33:48.821Z,17.42
2022-09-11T20:36:15.747Z,17.25
2022-09-11T20:38:41.822Z,17.20
2022-09-11T20:41:10.111Z,17.26
2022-09-11T20:43:36.335Z,17.16
2022-09-11T20:46:02.738Z,17.03
2022-09-11T20:48:29.151Z,16.79
2022-09-11T20:50:55.124Z,17.16
2022-09-11T20:53:22.231Z,17.10
2022-09-11T20:55:48.915Z,17.03
2022-09-11T20:58:15.303Z,16.93
2022-09-11T21:00:45.496Z,16.25
2022-09-11T21:03:11.705Z,15.63
2022-09-11T21:05:37.847Z,14.91
2022-09-11T21:08:04.086Z,15.33
2022-09-11T21:10:33.516Z,15.29
2022-09-11T21:12:59.315Z,15.93
2022-09-11T21:15:25.203Z,16.45
2022-09-11T21:17:51.057Z,16.54
2022-09-11T21:20:17.509Z,16.63
2022-09-11T21:22:43.372Z,16.46
2022-09-11T21:25:09.666Z,16.73
2022-09-11T21:27:35.452Z,16.74
2022-09-11T21:30:01.291Z,16.06
2022-09-11T21:32:27.077Z,16.29
2022-09-11T21:34:52.991Z,16.41
2022-09-11T21:37:18.815Z,15.44
2022-09-11T21:39:44.805Z,12.22
2022-09-11T21:42:12.044Z,16.36
2022-09-11T21:44:37.920Z,15.97
2022-09-11T21:47:03.861Z,15.97
2022-09-11T21:49:29.808Z,15.69
2022-09-11T21:51:55.610Z,16.13
2022-09-11T21:54:21.396Z,15.88
2022-09-11T21:56:47.727Z,16.30
2022-09-11T21:59:13.613Z,16.19
2022-09-11T22:01:39.434Z,16.54
2022-09-11T22:04:05.281Z,16.62
2022-09-11T22:06:31.198Z,16.43
2022-09-11T22:08:57.452Z,15.56
2022-09-11T22:11:23.476Z,14.05
2022-09-11T22:13:49.385Z,15.46
2022-09-11T22:16:17.705Z,15.79
2022-09-11T22:18:47.265Z,16.07
2022-09-11T22:21:13.370Z,15.83
2022-09-11T22:23:39.206Z,15.99
2022-09-11T22:26:11.545Z,14.84
2022-09-11T22:28:38.247Z,15.63
2022-09-11T22:31:18.342Z,15.40
2022-09-11T22:33:44.362Z,15.54
2022-09-11T22:36:18.976Z,15.01
2022-09-11T22:38:45.955Z,14.55
2022-09-11T22:41:11.839Z,14.72
2022-09-11T22:43:38.087Z,15.62
2022-09-11T22:46:04.615Z,15.08
2022-09-11T22:48:30.942Z,15.33
2022-09-11T22:50:56.922Z,15.39
2022-09-11T22:53:29.762Z,15.36
2022-09-11T22:55:55.821Z,15.74
2022-09-11T22:58:23.046Z,15.74
2022-09-11T23:00:51.033Z,15.76
2022-09-11T23:03:17.251Z,15.73
2022-09-11T23:06:01.411Z,15.68
2022-09-11T23:08:38.420Z,14.24
2022-09-11T23:11:05.172Z,15.71
2022-09-11T23:13:31.296Z,15.79
2022-09-11T23:15:57.957Z,15.88
2022-09-11T23:18:25.328Z,15.75
2022-09-11T23:20:55.369Z,15.65
2022-09-11T23:23:21.722Z,15.49
2022-09-11T23:25:48.768Z,14.45
2022-09-11T23:28:14.568Z,15.58
2022-09-11T23:30:41.181Z,15.40
2022-09-11T23:33:07.197Z,15.46
2022-09-11T23:35:33.137Z,15.47
2022-09-11T23:37:59.778Z,15.34
2022-09-11T23:40:25.630Z,15.34
2022-09-11T23:42:51.436Z,15.13
2022-09-11T23:45:17.333Z,15.43
2022-09-11T23:47:43.157Z,15.56
2022-09-11T23:50:09.401Z,15.39
2022-09-11T23:52:35.929Z,14.44
2022-09-11T23:55:03.452Z,15.36
2022-09-11T23:57:29.615Z,15.36
2022-09-11T23:59:55.452Z,15.37
